createdAt,value
2023-01-20T00:01:30.523Z,22.70
2023-01-20T00:03:59.619Z,18.95
2023-01-20T00:06:28.843Z,17.50
2023-01-20T00:09:01.220Z,16.00
2023-01-20T00:11:30.157Z,20.30
2023-01-20T00:14:00.031Z,29.05
2023-01-20T00:16:29.067Z,26.58
2023-01-20T00:18:57.299Z,26.48
2023-01-20T00:21:25.673Z,22.85
2023-01-20T00:23:53.907Z,22.30
2023-01-20T00:26:24.935Z,20.52
2023-01-20T00:28:55.501Z,21.50
2023-01-20T00:31:25.710Z,22.10
2023-01-20T00:33:56.245Z,20.35
2023-01-20T00:36:25.948Z,20.20
2023-01-20T00:38:54.778Z,16.83
2023-01-20T00:41:24.919Z,18.48
2023-01-20T00:43:53.295Z,19.90
2023-01-20T00:46:22.936Z,17.38
2023-01-20T00:48:51.413Z,14.68
2023-01-20T00:51:19.981Z,16.25
2023-01-20T00:53:48.387Z,17.17
2023-01-20T00:56:16.672Z,13.15
2023-01-20T00:58:46.365Z,12.75
2023-01-20T01:01:14.817Z,13.88
2023-01-20T01:03:43.164Z,9.57
2023-01-20T01:06:14.299Z,10.43
2023-01-20T01:08:43.449Z,9.50
2023-01-20T01:11:12.842Z,8.55
2023-01-20T01:13:41.853Z,9.77
2023-01-20T01:16:14.475Z,11.18
2023-01-20T01:18:43.272Z,10.68
2023-01-20T01:21:13.380Z,9.07
2023-01-20T01:23:41.767Z,8.77
2023-01-20T01:26:10.572Z,7.95
2023-01-20T01:28:38.866Z,10.68
2023-01-20T01:31:09.142Z,9.52
2023-01-20T01:33:38.898Z,7.68
2023-01-20T01:36:08.469Z,10.40
2023-01-20T01:38:36.820Z,9.68
2023-01-20T01:41:05.040Z,9.35
2023-01-20T01:43:34.822Z,7.65
2023-01-20T01:46:03.687Z,9.40
2023-01-20T01:48:36.267Z,8.05
2023-01-20T01:51:09.942Z,9.18
2023-01-20T01:53:42.297Z,8.27
2023-01-20T01:56:11.868Z,9.40
2023-01-20T01:58:45.830Z,8.52
2023-01-20T02:01:14.550Z,7.90
2023-01-20T02:03:49.689Z,7.80
2023-01-20T02:06:20.811Z,7.88
2023-01-20T02:08:49.873Z,7.65
2023-01-20T02:11:18.112Z,11.02
2023-01-20T02:13:46.680Z,9.70
2023-01-20T02:16:19.414Z,9.40
2023-01-20T02:19:02.840Z,11.82
2023-01-20T02:22:02.179Z,11.27
2023-01-20T02:25:10.489Z,9.93
2023-01-20T02:27:54.214Z,13.75
2023-01-20T02:30:55.670Z,14.38
2023-01-20T02:33:29.862Z,16.60
2023-01-20T02:36:07.922Z,47.03
2023-01-20T02:38:45.267Z,27.77
2023-01-20T02:41:18.931Z,23.30
2023-01-20T02:43:51.331Z,29.55
2023-01-20T02:46:26.522Z,63.28
2023-01-20T02:49:05.012Z,28.05
2023-01-20T02:51:41.840Z,57.03
2023-01-20T02:54:14.472Z,46.67
2023-01-20T02:56:43.982Z,53.63
2023-01-20T02:59:14.877Z,48.42
2023-01-20T03:01:47.668Z,38.75
2023-01-20T03:04:20.918Z,57.33
2023-01-20T03:06:53.491Z,26.73
2023-01-20T03:09:26.822Z,70.15
2023-01-20T03:12:00.051Z,27.80
2023-01-20T03:14:28.903Z,64.22
2023-01-20T03:16:57.341Z,29.50
2023-01-20T03:19:27.038Z,22.50
2023-01-20T03:21:55.386Z,40.47
2023-01-20T03:24:24.939Z,35.30
2023-01-20T03:26:53.343Z,31.27
2023-01-20T03:29:21.797Z,27.35
2023-01-20T03:31:53.845Z,27.42
2023-01-20T03:34:24.686Z,23.25
2023-01-20T03:36:55.224Z,16.70
2023-01-20T03:39:24.862Z,18.77
2023-01-20T03:42:02.356Z,16.98
2023-01-20T03:44:40.676Z,17.38
2023-01-20T03:47:18.106Z,16.75
2023-01-20T03:49:55.593Z,15.25
2023-01-20T03:52:47.773Z,15.90
2023-01-20T03:55:22.478Z,12.68
2023-01-20T03:57:55.950Z,9.10
2023-01-20T04:00:29.519Z,9.20
2023-01-20T04:03:00.544Z,8.68
2023-01-20T04:05:30.277Z,8.73
2023-01-20T04:08:03.383Z,8.95
2023-01-20T04:10:34.321Z,9.05
2023-01-20T04:13:02.606Z,9.77
2023-01-20T04:15:35.522Z,12.35
2023-01-20T04:18:16.213Z,12.43
2023-01-20T04:20:45.639Z,17.55
2023-01-20T04:23:20.804Z,11.95
2023-01-20T04:25:49.251Z,8.43
2023-01-20T04:28:17.470Z,8.68
2023-01-20T04:30:45.852Z,9.70
2023-01-20T04:33:14.129Z,7.22
2023-01-20T04:35:42.413Z,10.35
2023-01-20T04:38:10.764Z,8.13
2023-01-20T04:40:40.526Z,8.85
2023-01-20T04:43:10.000Z,9.15
2023-01-20T04:45:38.432Z,9.48
2023-01-20T04:48:08.245Z,7.18
2023-01-20T04:50:39.528Z,10.80
2023-01-20T04:53:08.018Z,11.25
2023-01-20T04:55:36.281Z,10.98
2023-01-20T04:58:05.878Z,12.38
2023-01-20T05:00:34.324Z,11.55
2023-01-20T05:03:02.976Z,10.98
2023-01-20T05:05:31.207Z,8.20
2023-01-20T05:07:59.687Z,9.57
2023-01-20T05:10:27.907Z,8.77
2023-01-20T05:12:56.202Z,6.55
2023-01-20T05:15:25.876Z,7.65
2023-01-20T05:17:54.257Z,8.98
2023-01-20T05:20:22.541Z,10.85
2023-01-20T05:22:50.782Z,14.85
2023-01-20T05:25:19.029Z,12.48
2023-01-20T05:27:47.337Z,12.30
2023-01-20T05:30:15.982Z,12.32
2023-01-20T05:32:46.136Z,13.43
2023-01-20T05:35:14.656Z,16.02
2023-01-20T05:37:43.053Z,19.27
2023-01-20T05:40:12.910Z,19.10
2023-01-20T05:42:41.275Z,16.30
2023-01-20T05:45:10.311Z,21.58
2023-01-20T05:47:38.594Z,19.33
2023-01-20T05:50:09.107Z,15.75
2023-01-20T05:52:37.485Z,13.23
2023-01-20T05:55:06.265Z,11.35
2023-01-20T05:57:34.427Z,13.95
2023-01-20T06:00:02.743Z,12.35
2023-01-20T06:02:33.258Z,12.00
2023-01-20T06:05:01.679Z,11.77
2023-01-20T06:07:31.764Z,10.23
2023-01-20T06:10:00.198Z,9.95
2023-01-20T06:12:28.497Z,9.80
2023-01-20T06:14:56.771Z,10.93
2023-01-20T06:17:24.959Z,8.15
2023-01-20T06:19:53.340Z,8.93
2023-01-20T06:22:21.716Z,9.60
2023-01-20T06:24:52.077Z,8.52
2023-01-20T06:27:20.724Z,9.43
2023-01-20T06:29:50.768Z,8.73
2023-01-20T06:32:19.083Z,10.52
2023-01-20T06:34:47.371Z,11.98
2023-01-20T06:37:15.640Z,14.10
2023-01-20T06:39:43.913Z,9.15
2023-01-20T06:42:13.558Z,10.50
2023-01-20T06:44:41.973Z,11.43
2023-01-20T06:47:38.295Z,12.38
2023-01-20T06:50:12.573Z,10.90
2023-01-20T06:52:40.810Z,8.57
2023-01-20T06:55:09.793Z,8.32
2023-01-20T06:57:39.233Z,9.70
2023-01-20T07:00:09.125Z,9.20
2023-01-20T07:02:37.347Z,11.55
2023-01-20T07:05:08.071Z,11.63
2023-01-20T07:07:37.723Z,14.30
2023-01-20T07:10:06.999Z,24.55
2023-01-20T07:12:35.263Z,27.60
2023-01-20T07:15:05.707Z,30.70
2023-01-20T07:17:34.009Z,34.97
2023-01-20T07:20:02.311Z,37.28
2023-01-20T07:22:30.608Z,37.92
2023-01-20T07:24:58.863Z,39.45
2023-01-20T07:27:27.160Z,36.83
2023-01-20T07:29:55.514Z,39.30
2023-01-20T07:32:25.003Z,33.47
2023-01-20T07:34:53.389Z,34.92
2023-01-20T07:37:21.628Z,34.22
2023-01-20T07:39:49.905Z,38.38
2023-01-20T07:42:18.172Z,36.13
2023-01-20T07:44:46.444Z,34.65
2023-01-20T07:47:14.656Z,34.90
2023-01-20T07:49:44.275Z,35.03
2023-01-20T07:52:12.597Z,35.42
2023-01-20T07:54:40.838Z,31.40
2023-01-20T07:57:09.787Z,30.85
2023-01-20T07:59:38.051Z,29.92
2023-01-20T08:02:06.373Z,29.98
2023-01-20T08:04:35.412Z,20.17
2023-01-20T08:07:05.171Z,15.80
2023-01-20T08:09:33.747Z,15.73
2023-01-20T08:12:02.401Z,14.73
2023-01-20T08:14:30.634Z,13.38
2023-01-20T08:17:00.098Z,15.35
2023-01-20T08:19:30.644Z,14.05
2023-01-20T08:21:59.006Z,14.57
2023-01-20T08:24:28.730Z,15.35
2023-01-20T08:26:59.055Z,15.20
2023-01-20T08:29:27.411Z,17.58
2023-01-20T08:31:55.707Z,17.70
2023-01-20T08:34:24.011Z,19.52
2023-01-20T08:36:54.074Z,15.85
2023-01-20T08:39:22.880Z,18.55
2023-01-20T08:41:52.454Z,28.08
2023-01-20T08:44:21.467Z,24.48
2023-01-20T08:46:52.539Z,23.73
2023-01-20T08:49:22.713Z,21.45
2023-01-20T08:51:51.415Z,22.95
2023-01-20T08:54:19.682Z,26.15
2023-01-20T08:56:52.622Z,26.65
2023-01-20T08:59:21.606Z,27.25
2023-01-20T09:01:50.021Z,27.92
2023-01-20T09:04:18.386Z,29.65
2023-01-20T09:06:50.217Z,31.15
2023-01-20T09:09:21.023Z,34.00
2023-01-20T09:11:51.749Z,56.50
2023-01-20T09:14:22.677Z,37.65
2023-01-20T09:16:51.350Z,27.80
2023-01-20T09:19:19.728Z,30.48
2023-01-20T09:21:48.043Z,26.15
2023-01-20T09:24:16.478Z,27.15
2023-01-20T09:26:45.249Z,24.65
2023-01-20T09:29:15.359Z,28.25
2023-01-20T09:31:49.836Z,30.08
2023-01-20T09:34:23.109Z,26.38
2023-01-20T09:36:52.427Z,24.00
2023-01-20T09:39:37.809Z,28.77
2023-01-20T09:42:34.346Z,26.83
2023-01-20T09:45:22.598Z,25.70
2023-01-20T09:47:52.516Z,27.25
2023-01-20T09:51:03.567Z,28.85
2023-01-20T09:53:44.072Z,29.02
2023-01-20T09:56:16.489Z,31.60
2023-01-20T09:58:52.688Z,32.20
2023-01-20T10:01:30.723Z,30.05
2023-01-20T10:04:10.727Z,31.02
2023-01-20T10:06:43.722Z,32.83
2023-01-20T10:09:21.899Z,42.67
2023-01-20T10:11:53.370Z,27.00
2023-01-20T10:14:26.963Z,31.83
2023-01-20T10:16:59.293Z,32.95
2023-01-20T10:19:34.817Z,32.65
2023-01-20T10:22:10.661Z,33.30
2023-01-20T10:24:48.339Z,41.13
2023-01-20T10:27:16.824Z,34.15
2023-01-20T10:29:48.813Z,30.58
2023-01-20T10:32:25.758Z,42.08
2023-01-20T10:34:58.059Z,38.60
2023-01-20T10:37:27.802Z,38.28
2023-01-20T10:39:59.603Z,34.35
2023-01-20T10:42:29.233Z,41.03
2023-01-20T10:44:59.592Z,36.22
2023-01-20T10:47:39.835Z,42.72
2023-01-20T10:50:35.589Z,48.28
2023-01-20T10:53:17.457Z,34.72
2023-01-20T10:55:58.990Z,40.47
2023-01-20T10:58:29.044Z,32.20
2023-01-20T11:01:01.147Z,35.42
2023-01-20T11:03:33.767Z,32.13
2023-01-20T11:06:04.503Z,36.35
2023-01-20T11:08:32.980Z,46.15
2023-01-20T11:11:10.119Z,37.10
2023-01-20T11:13:38.398Z,45.08
2023-01-20T11:16:15.066Z,31.40
2023-01-20T11:18:43.937Z,39.10
2023-01-20T11:21:14.562Z,41.17
2023-01-20T11:23:49.400Z,37.75
2023-01-20T11:26:22.323Z,33.22
2023-01-20T11:28:54.699Z,35.95
2023-01-20T11:31:36.604Z,43.72
2023-01-20T11:34:22.829Z,36.85
2023-01-20T11:37:11.095Z,37.90
2023-01-20T11:39:45.504Z,41.13
2023-01-20T11:42:17.409Z,39.47
2023-01-20T11:44:46.405Z,46.80
2023-01-20T11:47:23.857Z,44.83
2023-01-20T11:50:20.420Z,45.80
2023-01-20T11:52:49.960Z,49.63
2023-01-20T11:55:20.657Z,42.38
2023-01-20T11:57:53.850Z,49.50
2023-01-20T12:00:37.197Z,49.03
2023-01-20T12:03:32.689Z,46.90
2023-01-20T12:06:07.560Z,47.92
2023-01-20T12:08:50.190Z,49.10
2023-01-20T12:11:25.411Z,45.45
2023-01-20T12:14:24.765Z,47.88
2023-01-20T12:17:15.453Z,47.95
2023-01-20T12:19:59.008Z,46.10
2023-01-20T12:22:37.295Z,45.00
2023-01-20T12:25:17.257Z,44.17
2023-01-20T12:27:51.172Z,39.92
2023-01-20T12:30:38.193Z,39.90
2023-01-20T12:33:12.110Z,42.92
2023-01-20T12:35:49.106Z,45.78
2023-01-20T12:38:20.567Z,48.47
2023-01-20T12:40:53.852Z,46.92
2023-01-20T12:43:40.746Z,51.80
2023-01-20T12:46:26.045Z,46.83
2023-01-20T12:49:12.831Z,46.60
2023-01-20T12:51:52.151Z,52.00
2023-01-20T12:54:48.012Z,48.53
2023-01-20T12:57:28.352Z,46.75
2023-01-20T13:00:16.438Z,52.15
2023-01-20T13:03:05.016Z,46.25
2023-01-20T13:05:47.016Z,50.65
2023-01-20T13:08:23.216Z,55.97
2023-01-20T13:11:01.072Z,53.45
2023-01-20T13:13:56.049Z,56.92
2023-01-20T13:16:33.615Z,53.63
2023-01-20T13:19:11.640Z,51.25
2023-01-20T13:21:41.811Z,59.42
2023-01-20T13:24:19.090Z,55.58
2023-01-20T13:26:49.574Z,54.63
2023-01-20T13:29:44.011Z,49.10
2023-01-20T13:32:33.925Z,55.95
2023-01-20T13:35:03.722Z,57.33
2023-01-20T13:37:36.359Z,52.58
2023-01-20T13:40:12.864Z,46.78
2023-01-20T13:42:51.848Z,59.15
2023-01-20T13:45:29.054Z,52.78
2023-01-20T13:48:24.710Z,50.03
2023-01-20T13:50:53.877Z,47.40
2023-01-20T13:53:28.911Z,47.10
2023-01-20T13:56:26.085Z,46.47
2023-01-20T13:58:54.629Z,47.08
2023-01-20T14:01:24.673Z,50.65
2023-01-20T14:04:04.170Z,44.78
2023-01-20T14:06:34.080Z,50.25
2023-01-20T14:09:03.555Z,42.67
2023-01-20T14:11:32.274Z,47.33
2023-01-20T14:14:02.919Z,49.13
2023-01-20T14:16:39.167Z,48.28
2023-01-20T14:19:23.185Z,48.38
2023-01-20T14:21:54.100Z,45.83
2023-01-20T14:24:28.882Z,44.42
2023-01-20T14:27:07.736Z,44.72
2023-01-20T14:29:36.027Z,47.00
2023-01-20T14:32:17.298Z,40.75
2023-01-20T14:34:46.133Z,43.58
2023-01-20T14:37:27.240Z,42.53
2023-01-20T14:39:58.393Z,43.28
2023-01-20T14:42:28.875Z,46.28
2023-01-20T14:44:58.406Z,44.25
2023-01-20T14:47:29.034Z,38.95
2023-01-20T14:49:57.600Z,39.70
2023-01-20T14:52:28.745Z,45.67
2023-01-20T14:54:58.574Z,54.35
2023-01-20T14:57:30.040Z,46.00
2023-01-20T15:00:20.782Z,42.00
2023-01-20T15:03:09.461Z,44.50
2023-01-20T15:05:41.582Z,40.17
2023-01-20T15:08:24.331Z,39.80
2023-01-20T15:11:20.568Z,42.90
2023-01-20T15:14:11.940Z,35.95
2023-01-20T15:16:49.173Z,38.10
2023-01-20T15:19:30.559Z,36.03
2023-01-20T15:22:17.752Z,36.97
2023-01-20T15:24:49.399Z,37.00
2023-01-20T15:27:25.626Z,40.97
2023-01-20T15:30:03.819Z,37.85
2023-01-20T15:32:32.235Z,33.72
2023-01-20T15:35:01.685Z,38.63
2023-01-20T15:37:30.202Z,35.13
2023-01-20T15:39:59.430Z,38.45
2023-01-20T15:42:27.730Z,34.67
2023-01-20T15:44:56.005Z,37.05
2023-01-20T15:47:30.852Z,35.30
2023-01-20T15:49:59.385Z,39.13
2023-01-20T15:52:28.996Z,37.70
2023-01-20T15:54:57.335Z,35.45
2023-01-20T15:57:25.914Z,33.75
2023-01-20T15:59:54.172Z,38.03
2023-01-20T16:02:24.236Z,32.15
2023-01-20T16:04:52.502Z,37.03
2023-01-20T16:07:21.602Z,35.50
2023-01-20T16:09:51.171Z,38.58
2023-01-20T16:12:20.087Z,33.65
2023-01-20T16:14:48.750Z,37.35
2023-01-20T16:17:19.232Z,36.55
2023-01-20T16:19:48.062Z,38.25
2023-01-20T16:22:16.423Z,37.90
2023-01-20T16:24:45.403Z,39.40
2023-01-20T16:27:19.970Z,36.50
2023-01-20T16:29:48.910Z,36.28
2023-01-20T16:32:21.829Z,34.92
2023-01-20T16:34:50.707Z,33.35
2023-01-20T16:37:18.969Z,33.03
2023-01-20T16:39:47.619Z,34.22
2023-01-20T16:42:17.969Z,35.88
2023-01-20T16:44:46.292Z,37.33
2023-01-20T16:47:19.679Z,35.95
2023-01-20T16:49:48.050Z,37.90
2023-01-20T16:52:16.414Z,40.50
2023-01-20T16:54:44.726Z,39.55
2023-01-20T16:57:13.000Z,35.38
2023-01-20T16:59:42.569Z,33.25
2023-01-20T17:02:12.004Z,36.10
2023-01-20T17:04:40.454Z,38.80
2023-01-20T17:10:19.160Z,63.40
2023-01-20T17:12:48.997Z,115.13
2023-01-20T17:15:19.181Z,113.40
2023-01-20T17:17:49.731Z,115.07
2023-01-20T17:20:18.642Z,115.03
2023-01-20T17:22:47.463Z,185.13
2023-01-20T17:25:17.941Z,82.35
2023-01-20T17:27:46.443Z,56.22
2023-01-20T17:30:17.144Z,52.78
2023-01-20T17:32:49.453Z,38.25
2023-01-20T17:35:19.160Z,39.50
2023-01-20T17:37:47.711Z,33.70
2023-01-20T17:40:17.070Z,33.47
2023-01-20T17:42:46.464Z,37.13
2023-01-20T17:45:15.240Z,38.92
2023-01-20T17:47:46.129Z,42.90
2023-01-20T17:50:17.068Z,41.33
2023-01-20T17:52:45.624Z,42.17
2023-01-20T17:55:14.483Z,44.25
2023-01-20T17:57:42.923Z,45.72
2023-01-20T18:00:12.806Z,39.20
2023-01-20T18:02:41.133Z,40.20
2023-01-20T18:05:09.803Z,39.35
2023-01-20T18:07:39.742Z,36.38
2023-01-20T18:10:09.342Z,38.72
2023-01-20T18:12:37.737Z,43.67
2023-01-20T18:15:07.439Z,36.03
2023-01-20T18:17:35.937Z,38.03
2023-01-20T18:20:05.685Z,39.15
2023-01-20T18:22:37.194Z,35.88
2023-01-20T18:25:07.903Z,42.05
2023-01-20T18:27:36.355Z,38.47
2023-01-20T18:30:05.719Z,42.53
2023-01-20T18:32:34.348Z,41.78
2023-01-20T18:35:02.680Z,44.70
2023-01-20T18:37:32.299Z,44.72
2023-01-20T18:40:00.707Z,39.70
2023-01-20T18:42:30.542Z,40.28
2023-01-20T18:44:59.041Z,43.88
2023-01-20T18:47:27.381Z,42.28
2023-01-20T18:49:56.578Z,41.00
2023-01-20T18:52:25.490Z,49.88
2023-01-20T18:54:53.909Z,47.58
2023-01-20T18:57:22.263Z,49.35
2023-01-20T18:59:51.950Z,47.63
2023-01-20T19:02:20.760Z,49.92
2023-01-20T19:04:49.485Z,44.15
2023-01-20T19:07:18.115Z,46.25
2023-01-20T19:09:47.667Z,49.13
2023-01-20T19:12:16.316Z,45.60
2023-01-20T19:14:45.042Z,48.40
2023-01-20T19:17:15.026Z,48.00
2023-01-20T19:19:47.876Z,51.53
2023-01-20T19:22:16.696Z,43.92
2023-01-20T19:24:45.156Z,52.70
2023-01-20T19:27:13.655Z,49.92
2023-01-20T19:29:42.098Z,47.50
2023-01-20T19:32:10.824Z,56.08
2023-01-20T19:34:43.654Z,49.83
2023-01-20T19:37:12.140Z,46.70
2023-01-20T19:39:40.693Z,51.90
2023-01-20T19:42:17.783Z,43.20
2023-01-20T19:44:47.376Z,49.55
2023-01-20T19:47:15.819Z,50.25
2023-01-20T19:49:45.666Z,46.53
2023-01-20T19:52:14.092Z,40.58
2023-01-20T19:54:42.732Z,43.38
2023-01-20T19:57:11.676Z,40.08
2023-01-20T19:59:40.899Z,40.92
2023-01-20T20:02:10.326Z,35.95
2023-01-20T20:04:39.524Z,34.17
2023-01-20T20:10:21.857Z,29.40
2023-01-20T20:12:50.486Z,30.30
2023-01-20T20:15:19.166Z,34.00
2023-01-20T20:17:47.559Z,35.03
2023-01-20T20:20:16.607Z,36.97
2023-01-20T20:22:46.454Z,33.55
2023-01-20T20:25:15.002Z,32.88
2023-01-20T20:27:43.555Z,33.40
2023-01-20T20:30:13.144Z,37.65
2023-01-20T20:32:41.557Z,36.35
2023-01-20T20:35:10.502Z,33.65
2023-01-20T20:37:39.063Z,34.20
2023-01-20T20:40:10.862Z,30.83
2023-01-20T20:42:39.393Z,31.75
2023-01-20T20:45:09.192Z,32.92
2023-01-20T20:47:37.677Z,28.92
2023-01-20T20:50:07.971Z,30.48
2023-01-20T20:52:36.494Z,26.25
2023-01-20T20:55:05.771Z,28.10
2023-01-20T20:57:35.657Z,22.98
2023-01-20T21:00:05.178Z,25.85
2023-01-20T21:02:35.004Z,23.58
2023-01-20T21:05:03.426Z,24.92
2023-01-20T21:07:31.903Z,24.58
2023-01-20T21:10:00.703Z,25.25
2023-01-20T21:12:29.449Z,20.52
2023-01-20T21:15:00.109Z,20.15
2023-01-20T21:17:28.551Z,19.70
2023-01-20T21:19:58.728Z,19.25
2023-01-20T21:22:27.113Z,19.42
2023-01-20T21:24:55.563Z,18.98
2023-01-20T21:27:24.001Z,19.55
2023-01-20T21:29:52.615Z,20.70
2023-01-20T21:32:22.388Z,20.05
2023-01-20T21:34:50.856Z,21.90
2023-01-20T21:37:20.519Z,21.73
2023-01-20T21:39:49.008Z,21.65
2023-01-20T21:42:17.749Z,17.73
2023-01-20T21:44:45.255Z,20.30
2023-01-20T21:47:13.741Z,18.10
2023-01-20T21:50:00.762Z,17.38
2023-01-20T21:52:45.201Z,24.10
2023-01-20T21:55:19.064Z,17.70
2023-01-20T21:57:50.163Z,15.27
2023-01-20T22:00:20.498Z,15.68
2023-01-20T22:02:49.038Z,13.40
2023-01-20T22:05:19.309Z,15.70
2023-01-20T22:07:48.404Z,14.93
2023-01-20T22:10:17.735Z,19.55
2023-01-20T22:12:46.341Z,16.70
2023-01-20T22:15:15.272Z,15.93
2023-01-20T22:17:43.645Z,14.60
2023-01-20T22:20:12.763Z,17.38
2023-01-20T22:22:42.539Z,17.10
2023-01-20T22:25:11.408Z,15.18
2023-01-20T22:27:39.739Z,15.57
2023-01-20T22:30:09.386Z,17.80
2023-01-20T22:32:37.651Z,15.00
2023-01-20T22:35:06.727Z,20.08
2023-01-20T22:37:35.032Z,15.77
2023-01-20T22:40:06.236Z,18.88
2023-01-20T22:42:35.503Z,16.45
2023-01-20T22:45:04.068Z,20.83
2023-01-20T22:47:32.382Z,18.65
2023-01-20T22:50:00.741Z,16.27
2023-01-20T22:52:29.082Z,19.80
2023-01-20T22:54:57.463Z,17.90
2023-01-20T22:57:27.132Z,19.10
2023-01-20T22:59:55.686Z,17.90
2023-01-20T23:02:24.084Z,21.20
2023-01-20T23:04:53.091Z,20.20
2023-01-20T23:07:21.956Z,22.60
2023-01-20T23:09:50.543Z,23.05
2023-01-20T23:12:18.926Z,23.75
2023-01-20T23:15:00.827Z,21.85
2023-01-20T23:17:30.641Z,21.45
2023-01-20T23:19:59.568Z,24.55
2023-01-20T23:22:29.947Z,26.13
2023-01-20T23:24:58.159Z,24.60
2023-01-20T23:27:26.536Z,24.73
2023-01-20T23:29:55.973Z,25.50
2023-01-20T23:32:24.272Z,26.55
2023-01-20T23:34:52.562Z,23.75
2023-01-20T23:37:20.854Z,26.20
2023-01-20T23:39:51.956Z,24.17
2023-01-20T23:42:20.919Z,21.77
2023-01-20T23:44:49.068Z,21.45
2023-01-20T23:47:18.802Z,24.60
2023-01-20T23:49:46.965Z,22.83
2023-01-20T23:52:15.390Z,26.65
2023-01-20T23:54:43.561Z,24.05
2023-01-20T23:57:11.853Z,28.13
2023-01-20T23:59:40.079Z,25.55
